Time;durP1;ratioP1;P1;durP2;ratioP2;P2;SDS_P1;SDS_P2;PMS_P1;PMS_P2;Temp;Humidity;BMP_temperature;BMP_pressure;BME280_temperature;BME280_humidity;BME280_pressure;Samples;Min_cycle;Max_cycle;Signal;HPM_P1;HPM_P2
2024/01/01 00:01:39;;;;;;;35.25;29.52;;;14.50;94.80;;;;;;5096037;28;20043;-81
2024/01/01 00:04:05;;;;;;;55.90;45.10;;;14.60;94.90;;;;;;5097052;28;20032;-80
2024/01/01 00:06:31;;;;;;;68.90;56.88;;;14.50;94.90;;;;;;5093649;28;20467;-79
2024/01/01 00:08:56;;;;;;;67.85;53.50;;;14.60;95.00;;;;;;5093581;28;20028;-80
2024/01/01 00:11:22;;;;;;;54.03;47.08;;;14.60;95.00;;;;;;5093375;28;20085;-79
2024/01/01 00:13:48;;;;;;;46.08;37.28;;;14.60;95.10;;;;;;5093201;28;20040;-78
2024/01/01 00:16:16;;;;;;;46.75;36.28;;;14.60;95.00;;;;;;5093186;28;20082;-80
2024/01/01 00:18:42;;;;;;;46.88;37.25;;;14.60;95.10;;;;;;5093155;28;20364;-80
2024/01/01 00:21:08;;;;;;;41.97;34.28;;;14.60;95.10;;;;;;5092961;28;20081;-79
2024/01/01 00:23:34;;;;;;;42.72;34.15;;;14.60;95.10;;;;;;5093382;28;20036;-78
2024/01/01 00:26:00;;;;;;;41.80;32.78;;;14.70;95.20;;;;;;5093315;28;20111;-80
2024/01/01 00:28:26;;;;;;;42.80;33.17;;;14.70;95.30;;;;;;5092966;28;20028;-78
2024/01/01 00:30:51;;;;;;;39.47;31.05;;;14.70;95.40;;;;;;5093266;28;20134;-78
2024/01/01 00:33:17;;;;;;;41.60;31.42;;;14.70;95.40;;;;;;5093088;28;20040;-78
2024/01/01 00:35:44;;;;;;;35.78;29.73;;;14.70;95.60;;;;;;5093191;28;20025;-78
2024/01/01 00:38:10;;;;;;;35.38;28.85;;;14.70;95.60;;;;;;5093042;28;20028;-79
2024/01/01 00:40:37;;;;;;;37.17;29.40;;;14.70;95.70;;;;;;5093357;28;20055;-77
2024/01/01 00:43:03;;;;;;;37.45;28.38;;;14.80;95.90;;;;;;5092669;28;20498;-79
2024/01/01 00:45:29;;;;;;;39.88;29.42;;;14.80;96.00;;;;;;5093942;28;20420;-80
2024/01/01 00:47:54;;;;;;;40.78;29.92;;;14.80;96.00;;;;;;5093099;28;20066;-79
2024/01/01 00:50:20;;;;;;;40.80;30.42;;;14.80;96.10;;;;;;5093302;28;20032;-79
2024/01/01 00:52:46;;;;;;;44.88;30.70;;;14.80;96.20;;;;;;5092118;28;20131;-78
2024/01/01 00:55:11;;;;;;;41.15;29.95;;;14.70;96.30;;;;;;5093442;28;20028;-78
2024/01/01 00:57:37;;;;;;;44.85;30.92;;;14.70;96.40;;;;;;5092706;28;20498;-79
2024/01/01 01:00:03;;;;;;;43.70;31.83;;;14.70;96.40;;;;;;5092977;28;20033;-77
2024/01/01 01:02:30;;;;;;;43.58;33.00;;;14.80;96.50;;;;;;5092727;28;20039;-79
2024/01/01 01:04:56;;;;;;;46.17;33.55;;;14.80;96.60;;;;;;5092581;28;20032;-80
2024/01/01 01:07:22;;;;;;;50.95;36.17;;;14.80;96.60;;;;;;5092678;28;20032;-78
2024/01/01 01:09:48;;;;;;;48.88;35.17;;;14.80;96.70;;;;;;5092917;28;20032;-78
2024/01/01 01:12:16;;;;;;;46.88;35.65;;;14.80;96.70;;;;;;5092439;28;20111;-78
2024/01/01 01:14:42;;;;;;;51.92;36.17;;;14.80;96.90;;;;;;5096875;28;20045;-78
2024/01/01 01:17:08;;;;;;;51.17;36.85;;;14.70;97.00;;;;;;5096514;28;20531;-77
2024/01/01 01:19:34;;;;;;;49.17;35.75;;;14.80;97.00;;;;;;5096341;28;20146;-80
2024/01/01 01:22:00;;;;;;;53.40;36.25;;;14.70;97.00;;;;;;5096769;28;20028;-78
2024/01/01 01:24:26;;;;;;;51.05;36.15;;;14.80;97.10;;;;;;5097455;28;20380;-78
2024/01/01 01:26:52;;;;;;;55.17;37.28;;;14.70;97.20;;;;;;5098878;28;20032;-77
2024/01/01 01:29:17;;;;;;;44.05;33.67;;;14.70;97.10;;;;;;5097431;28;20032;-77
2024/01/01 01:31:46;;;;;;;50.38;36.15;;;14.70;97.30;;;;;;5096428;28;20047;-78
2024/01/01 01:34:12;;;;;;;49.35;36.35;;;14.60;97.30;;;;;;5096001;28;20479;-79
2024/01/01 01:36:38;;;;;;;48.35;34.53;;;14.60;97.50;;;;;;5096688;28;20036;-80
2024/01/01 01:39:03;;;;;;;56.72;36.75;;;14.50;97.40;;;;;;5097911;28;20040;-79
2024/01/01 01:41:29;;;;;;;50.80;35.60;;;14.50;97.50;;;;;;5096434;28;20467;-77
2024/01/01 01:43:55;;;;;;;48.80;34.60;;;14.50;97.50;;;;;;5095800;28;20052;-78
2024/01/01 01:46:21;;;;;;;46.85;33.55;;;14.50;97.50;;;;;;5094389;28;20475;-78
2024/01/01 01:48:47;;;;;;;47.88;32.53;;;14.50;97.60;;;;;;5095347;28;20064;-78
2024/01/01 01:51:14;;;;;;;42.17;30.95;;;14.50;97.70;;;;;;5095600;28;20032;-78
2024/01/01 01:53:40;;;;;;;49.67;32.17;;;14.40;97.70;;;;;;5095887;28;20040;-80
2024/01/01 01:56:07;;;;;;;44.58;31.10;;;14.40;97.70;;;;;;5096478;28;20376;-78
2024/01/01 01:58:34;;;;;;;43.47;30.10;;;14.40;97.80;;;;;;5095561;28;20116;-77
2024/01/01 02:01:00;;;;;;;42.25;28.90;;;14.40;98.00;;;;;;5095328;28;20040;-79
2024/01/01 02:03:26;;;;;;;39.78;28.67;;;14.30;98.00;;;;;;5095552;28;20507;-78
2024/01/01 02:05:52;;;;;;;50.38;28.33;;;14.30;98.00;;;;;;5095339;28;20032;-78
2024/01/01 02:08:18;;;;;;;39.38;27.13;;;14.30;98.10;;;;;;5094258;28;20487;-77
2024/01/01 02:10:44;;;;;;;43.47;28.17;;;14.30;98.10;;;;;;5095454;28;20024;-78
2024/01/01 02:13:27;;;;;;;39.70;27.20;;;14.30;98.20;;;;;;5093760;28;20078;-78
2024/01/01 02:15:53;;;;;;;45.05;28.70;;;14.30;98.40;;;;;;5095542;28;20032;-79
2024/01/01 02:18:20;;;;;;;40.00;27.40;;;14.30;98.60;;;;;;5095074;28;20036;-79
2024/01/01 02:20:46;;;;;;;39.55;25.48;;;14.20;98.40;;;;;;5095131;28;20028;-78
2024/01/01 02:23:16;;;;;;;43.78;25.75;;;14.20;98.40;;;;;;5095101;28;20492;-78
2024/01/01 02:25:43;;;;;;;34.75;24.15;;;14.20;98.50;;;;;;5094043;28;20373;-79
2024/01/01 02:28:08;;;;;;;37.72;24.48;;;14.20;98.40;;;;;;5094679;28;20036;-79
2024/01/01 02:30:34;;;;;;;36.10;24.05;;;14.10;98.50;;;;;;5094669;28;20028;-78
2024/01/01 02:33:06;;;;;;;37.70;24.63;;;14.20;98.50;;;;;;5094594;28;20040;-79
2024/01/01 02:35:32;;;;;;;40.58;26.52;;;14.20;98.70;;;;;;5094576;28;20036;-78
2024/01/01 02:37:58;;;;;;;34.67;24.00;;;14.20;98.60;;;;;;5094882;28;20044;-77
2024/01/01 02:40:23;;;;;;;34.85;24.40;;;14.10;98.60;;;;;;5094676;28;20107;-77
2024/01/01 02:42:49;;;;;;;33.85;23.33;;;14.10;98.80;;;;;;5092929;28;20036;-79
2024/01/01 02:45:15;;;;;;;39.20;25.25;;;14.10;98.60;;;;;;5093115;28;20040;-77
2024/01/01 02:47:42;;;;;;;31.38;22.38;;;14.20;98.90;;;;;;5094414;28;20104;-79
2024/01/01 02:50:07;;;;;;;36.47;23.73;;;14.10;98.60;;;;;;5094369;28;20024;-77
2024/01/01 02:52:33;;;;;;;33.88;21.92;;;14.20;98.60;;;;;;5094380;28;20092;-79
2024/01/01 02:54:59;;;;;;;35.00;21.83;;;14.20;98.60;;;;;;5094618;28;20044;-79
2024/01/01 02:57:27;;;;;;;34.10;21.30;;;14.20;98.60;;;;;;5095001;28;20479;-78
2024/01/01 02:59:53;;;;;;;30.38;21.27;;;14.20;98.60;;;;;;5094130;28;20051;-78
2024/01/01 03:02:19;;;;;;;29.85;20.08;;;14.20;98.50;;;;;;5092855;28;20527;-76
2024/01/01 03:04:45;;;;;;;33.58;20.83;;;14.20;98.50;;;;;;5094092;28;20368;-78
2024/01/01 03:07:10;;;;;;;31.05;20.20;;;14.20;98.50;;;;;;5094161;28;20028;-80
2024/01/01 03:09:36;;;;;;;30.25;20.10;;;14.30;98.50;;;;;;5093960;28;20047;-77
2024/01/01 03:12:02;;;;;;;29.05;19.55;;;14.20;98.30;;;;;;5093971;28;20036;-77
2024/01/01 03:14:28;;;;;;;28.83;20.27;;;14.30;98.50;;;;;;5093942;28;20483;-77
2024/01/01 03:16:53;;;;;;;30.92;19.92;;;14.30;98.40;;;;;;5093858;28;20032;-77
2024/01/01 03:19:20;;;;;;;27.83;19.02;;;14.30;98.40;;;;;;5093981;28;20563;-77
2024/01/01 03:21:46;;;;;;;28.83;20.23;;;14.30;98.50;;;;;;5093675;28;20067;-77
2024/01/01 03:24:12;;;;;;;30.15;19.48;;;14.30;98.40;;;;;;5092519;28;20067;-79
2024/01/01 03:26:37;;;;;;;29.35;17.92;;;14.30;98.30;;;;;;5094133;28;20418;-79
2024/01/01 03:29:03;;;;;;;33.28;19.00;;;14.30;98.50;;;;;;5093992;28;20532;-78
2024/01/01 03:31:29;;;;;;;27.23;18.33;;;14.30;98.40;;;;;;5093389;28;20525;-78
2024/01/01 03:33:54;;;;;;;29.15;18.25;;;14.20;98.30;;;;;;5094037;28;20036;-78
2024/01/01 03:36:20;;;;;;;24.20;17.58;;;14.20;98.30;;;;;;5094632;28;20046;-77
2024/01/01 03:38:46;;;;;;;29.88;19.00;;;14.20;98.20;;;;;;5096220;28;20051;-78
2024/01/01 03:41:11;;;;;;;30.23;19.52;;;14.20;98.30;;;;;;5094996;28;20093;-78
2024/01/01 03:43:37;;;;;;;35.55;19.52;;;14.10;98.20;;;;;;5094403;28;20131;-78
2024/01/01 03:46:03;;;;;;;27.02;18.25;;;14.10;98.30;;;;;;5094337;28;20484;-79
2024/01/01 03:48:29;;;;;;;26.50;17.73;;;14.10;98.20;;;;;;5093866;28;20210;-78
2024/01/01 03:50:54;;;;;;;25.10;17.70;;;14.10;98.20;;;;;;5093467;28;20032;-77
2024/01/01 03:53:20;;;;;;;28.75;18.05;;;14.10;98.30;;;;;;5093666;28;20470;-78
2024/01/01 03:55:46;;;;;;;26.23;17.60;;;14.10;98.20;;;;;;5096705;28;20054;-76
2024/01/01 03:58:11;;;;;;;26.88;18.17;;;14.00;98.20;;;;;;5093492;28;20054;-79
2024/01/01 04:00:37;;;;;;;30.35;18.42;;;14.00;98.20;;;;;;5093343;28;20032;-77
2024/01/01 04:03:03;;;;;;;22.00;15.80;;;14.00;98.20;;;;;;5093184;28;20077;-76
2024/01/01 04:05:29;;;;;;;26.27;16.55;;;14.00;98.20;;;;;;5093159;28;20133;-79
2024/01/01 04:07:54;;;;;;;26.88;16.83;;;14.10;98.60;;;;;;5093036;28;20044;-77
2024/01/01 04:10:21;;;;;;;26.42;17.27;;;14.10;98.20;;;;;;5092829;28;20029;-77
2024/01/01 04:12:46;;;;;;;27.20;17.70;;;14.10;98.30;;;;;;5091358;28;20047;-78
2024/01/01 04:15:12;;;;;;;25.25;17.00;;;14.10;98.20;;;;;;5093110;28;20078;-78
2024/01/01 04:17:38;;;;;;;22.95;16.20;;;14.10;98.20;;;;;;5091685;28;20436;-78
2024/01/01 04:20:10;;;;;;;27.73;16.75;;;14.10;98.20;;;;;;5093176;28;20157;-78
2024/01/01 04:22:40;;;;;;;23.23;15.30;;;14.10;98.00;;;;;;5092714;28;20080;-79
2024/01/01 04:25:06;;;;;;;21.92;15.35;;;14.10;98.20;;;;;;5091740;28;20113;-78
2024/01/01 04:27:32;;;;;;;24.70;15.55;;;14.20;98.10;;;;;;5092866;28;20044;-78
2024/01/01 04:29:58;;;;;;;24.77;15.60;;;14.20;98.00;;;;;;5091776;28;20039;-77
2024/01/01 04:32:24;;;;;;;28.80;16.42;;;14.20;98.10;;;;;;5092552;28;20040;-78
2024/01/01 04:34:50;;;;;;;23.23;16.17;;;14.10;98.00;;;;;;5092918;28;20060;-77
2024/01/01 04:37:16;;;;;;;23.50;15.27;;;14.10;98.00;;;;;;5092579;28;20101;-78
2024/01/01 04:39:42;;;;;;;26.10;14.00;;;14.10;98.00;;;;;;5092666;28;20115;-79
2024/01/01 04:42:08;;;;;;;22.48;15.65;;;14.00;98.00;;;;;;5092821;28;20388;-79
2024/01/01 04:44:33;;;;;;;22.60;15.93;;;14.00;98.00;;;;;;5092886;28;20044;-77
2024/01/01 04:47:00;;;;;;;25.38;15.02;;;14.00;98.00;;;;;;5092848;28;20446;-78
2024/01/01 04:49:26;;;;;;;25.27;14.85;;;14.00;98.00;;;;;;5096438;28;20040;-77
2024/01/01 04:51:52;;;;;;;21.60;14.02;;;14.00;98.00;;;;;;5096778;28;20036;-77
2024/01/01 04:54:18;;;;;;;24.00;14.18;;;14.00;97.90;;;;;;5096470;28;20035;-78
2024/01/01 04:56:44;;;;;;;20.98;14.80;;;14.00;98.00;;;;;;5096700;28;20040;-78
2024/01/01 04:59:10;;;;;;;19.90;14.05;;;14.00;97.90;;;;;;5096340;28;20407;-78
2024/01/01 05:01:35;;;;;;;20.92;13.52;;;14.10;97.90;;;;;;5096871;28;20039;-78
2024/01/01 05:04:01;;;;;;;23.95;14.23;;;14.10;97.70;;;;;;5096688;28;20024;-78
2024/01/01 05:06:27;;;;;;;21.45;14.75;;;14.10;97.80;;;;;;5096155;28;20032;-79
2024/01/01 05:08:53;;;;;;;19.17;13.77;;;14.10;97.70;;;;;;5096582;28;20055;-79
2024/01/01 05:11:18;;;;;;;21.67;12.75;;;14.10;97.80;;;;;;5096414;28;20132;-77
2024/01/01 05:13:44;;;;;;;23.98;12.75;;;14.10;97.70;;;;;;5096301;28;20042;-76
2024/01/01 05:16:10;;;;;;;20.17;13.57;;;14.10;97.60;;;;;;5096421;28;20028;-77
2024/01/01 05:18:35;;;;;;;21.48;12.43;;;14.10;97.70;;;;;;5096224;28;20060;-77
2024/01/01 05:21:01;;;;;;;18.35;12.23;;;14.10;97.70;;;;;;5096177;28;20059;-78
2024/01/01 05:23:27;;;;;;;19.88;12.20;;;14.10;97.60;;;;;;5094799;28;20479;-78
2024/01/01 05:25:53;;;;;;;15.73;12.20;;;14.10;97.60;;;;;;5096146;28;20039;-77
2024/01/01 05:28:18;;;;;;;20.85;12.07;;;14.10;97.60;;;;;;5096144;28;20032;-77
2024/01/01 05:30:44;;;;;;;20.75;11.90;;;14.20;97.60;;;;;;5096161;28;20032;-78
2024/01/01 05:33:10;;;;;;;18.20;11.77;;;14.20;97.50;;;;;;5095859;28;20052;-77
2024/01/01 05:35:36;;;;;;;19.98;12.40;;;14.20;97.40;;;;;;5095686;28;20043;-78
2024/01/01 05:38:03;;;;;;;20.58;10.68;;;14.20;97.40;;;;;;5095661;28;20035;-78
2024/01/01 05:40:28;;;;;;;19.10;10.63;;;14.20;97.40;;;;;;5095728;28;20032;-78
2024/01/01 05:42:54;;;;;;;17.52;8.90;;;14.20;97.40;;;;;;5095564;28;20032;-77
2024/01/01 05:45:20;;;;;;;20.13;10.00;;;14.20;97.30;;;;;;5095767;28;20468;-77
2024/01/01 05:47:45;;;;;;;14.18;8.82;;;14.20;97.30;;;;;;5095544;28;20028;-78
2024/01/01 05:50:11;;;;;;;18.05;9.90;;;14.30;97.30;;;;;;5095559;28;20356;-78
2024/01/01 05:52:37;;;;;;;22.48;9.98;;;14.30;97.40;;;;;;5095431;28;20048;-78
2024/01/01 05:55:03;;;;;;;18.83;9.88;;;14.30;97.30;;;;;;5095967;28;20035;-77
2024/01/01 05:57:28;;;;;;;15.13;9.00;;;14.30;97.10;;;;;;5095433;28;20028;-77
2024/01/01 05:59:54;;;;;;;22.60;10.50;;;14.30;97.20;;;;;;5095074;28;20034;-77
2024/01/01 06:02:19;;;;;;;15.48;9.27;;;14.30;97.20;;;;;;5095257;28;20032;-78
2024/01/01 06:04:45;;;;;;;18.42;9.98;;;14.30;97.30;;;;;;5095393;28;20523;-78
2024/01/01 06:07:11;;;;;;;17.38;9.55;;;14.20;97.20;;;;;;5095080;28;20040;-77
2024/01/01 06:09:37;;;;;;;15.82;9.82;;;14.20;97.30;;;;;;5095147;28;20036;-78
2024/01/01 06:12:03;;;;;;;14.27;9.27;;;14.20;97.30;;;;;;5095206;28;20111;-77
2024/01/01 06:14:29;;;;;;;21.88;10.10;;;14.20;97.10;;;;;;5093727;28;20047;-79
2024/01/01 06:16:57;;;;;;;19.83;9.88;;;14.20;97.30;;;;;;5095245;28;20028;-78
2024/01/01 06:19:22;;;;;;;17.13;10.10;;;14.20;97.30;;;;;;5095113;28;20035;-77
2024/01/01 06:21:48;;;;;;;17.48;10.30;;;14.10;97.30;;;;;;5095960;28;20387;-78
2024/01/01 06:24:14;;;;;;;17.23;10.27;;;14.10;97.40;;;;;;5095904;28;20419;-79
2024/01/01 06:26:40;;;;;;;16.98;9.63;;;14.10;97.40;;;;;;5095264;28;20063;-79
2024/01/01 06:29:05;;;;;;;21.90;9.75;;;14.10;97.30;;;;;;5093723;28;20074;-78
2024/01/01 06:31:31;;;;;;;17.30;10.07;;;14.10;97.40;;;;;;5094870;28;20392;-77
2024/01/01 06:33:57;;;;;;;16.95;9.73;;;14.10;97.30;;;;;;5094803;28;20059;-78
2024/01/01 06:36:22;;;;;;;18.73;10.48;;;14.10;97.30;;;;;;5094624;28;20495;-78
2024/01/01 06:38:48;;;;;;;16.15;10.05;;;14.10;97.40;;;;;;5094951;28;20144;-77
2024/01/01 06:41:14;;;;;;;16.10;10.48;;;14.10;97.60;;;;;;5094513;28;20430;-76
2024/01/01 06:43:39;;;;;;;17.15;10.15;;;14.10;97.30;;;;;;5094653;28;20044;-78
2024/01/01 06:46:05;;;;;;;17.13;10.27;;;14.10;97.40;;;;;;5094464;28;20115;-77
2024/01/01 06:48:31;;;;;;;15.95;9.07;;;14.10;97.40;;;;;;5094288;28;20067;-79
2024/01/01 06:50:57;;;;;;;17.75;10.02;;;14.10;97.30;;;;;;5094284;28;20612;-79
2024/01/01 06:53:23;;;;;;;16.48;9.45;;;14.10;97.30;;;;;;5094314;28;20132;-78
2024/01/01 06:55:49;;;;;;;20.15;8.88;;;14.10;97.40;;;;;;5094550;28;20032;-78
2024/01/01 06:58:14;;;;;;;16.40;9.15;;;14.20;97.40;;;;;;5094260;28;20395;-78
2024/01/01 07:00:40;;;;;;;13.38;8.98;;;14.10;97.30;;;;;;5094547;28;20024;-78
2024/01/01 07:03:06;;;;;;;15.98;8.77;;;14.20;97.40;;;;;;5094703;28;20048;-78
2024/01/01 07:05:33;;;;;;;15.93;9.02;;;14.20;97.10;;;;;;5094900;28;20025;-78
2024/01/01 07:07:59;;;;;;;13.35;8.35;;;14.20;97.20;;;;;;5097228;28;20043;-77
2024/01/01 07:10:25;;;;;;;15.05;8.43;;;14.20;97.20;;;;;;5094301;28;20076;-79
2024/01/01 07:12:50;;;;;;;17.08;8.30;;;14.20;97.10;;;;;;5094167;28;20048;-79
2024/01/01 07:15:16;;;;;;;16.10;7.88;;;14.20;97.10;;;;;;5094252;28;20028;-78
2024/01/01 07:17:42;;;;;;;16.42;8.30;;;14.20;97.10;;;;;;5094254;28;20055;-77
2024/01/01 07:20:10;;;;;;;16.02;7.78;;;14.30;97.00;;;;;;5094149;28;20059;-77
2024/01/01 07:22:36;;;;;;;18.05;7.65;;;14.30;97.00;;;;;;5094182;28;20044;-77
2024/01/01 07:25:02;;;;;;;20.15;8.60;;;14.30;97.00;;;;;;5094299;28;20020;-78
2024/01/01 07:27:28;;;;;;;18.38;7.93;;;14.40;97.00;;;;;;5093920;28;20139;-77
2024/01/01 07:29:55;;;;;;;15.68;8.18;;;14.40;96.90;;;;;;5093745;28;20052;-79
2024/01/01 07:32:21;;;;;;;18.85;7.47;;;14.40;97.00;;;;;;5093655;28;20075;-78
2024/01/01 07:34:47;;;;;;;13.80;7.57;;;14.50;96.80;;;;;;5093578;28;20070;-78
2024/01/01 07:37:12;;;;;;;15.05;7.30;;;14.50;96.80;;;;;;5092206;28;20558;-79
2024/01/01 07:39:38;;;;;;;12.95;6.75;;;14.70;96.70;;;;;;5093876;28;20082;-78
2024/01/01 07:42:04;;;;;;;15.32;7.60;;;14.70;96.60;;;;;;5093485;28;20059;-79
2024/01/01 07:44:30;;;;;;;12.10;6.85;;;14.80;96.50;;;;;;5093358;28;20048;-78
2024/01/01 07:46:56;;;;;;;16.63;9.25;;;14.80;96.40;;;;;;5093247;28;20032;-77
2024/01/01 07:49:22;;;;;;;17.92;8.70;;;14.80;96.30;;;;;;5093188;28;20089;-78
2024/01/01 07:51:47;;;;;;;14.77;7.65;;;14.90;96.30;;;;;;5093391;28;20365;-78
2024/01/01 07:54:13;;;;;;;16.67;7.45;;;14.90;96.20;;;;;;5092057;28;20086;-77
2024/01/01 07:56:43;;;;;;;13.18;7.32;;;15.00;96.10;;;;;;5093459;28;20025;-75
2024/01/01 07:59:10;;;;;;;16.58;7.25;;;15.00;96.10;;;;;;5093359;28;20105;-77
2024/01/01 08:01:36;;;;;;;15.52;7.47;;;15.00;96.00;;;;;;5093190;28;20043;-78
2024/01/01 08:04:02;;;;;;;16.13;8.05;;;15.10;96.00;;;;;;5091969;28;20036;-78
2024/01/01 08:06:27;;;;;;;14.43;7.45;;;15.10;95.90;;;;;;5093309;28;20036;-77
2024/01/01 08:08:53;;;;;;;21.55;7.45;;;15.10;95.90;;;;;;5093892;28;20395;-79
2024/01/01 08:11:19;;;;;;;11.55;6.13;;;15.10;95.80;;;;;;5093521;28;20055;-78
2024/01/01 08:13:45;;;;;;;17.00;7.03;;;15.10;95.80;;;;;;5093149;28;20044;-79
2024/01/01 08:16:11;;;;;;;17.42;6.90;;;15.10;95.70;;;;;;5093077;28;20032;-79
2024/01/01 08:18:37;;;;;;;17.33;6.40;;;15.20;95.70;;;;;;5091865;28;20032;-79
2024/01/01 08:21:03;;;;;;;21.85;8.18;;;15.10;95.60;;;;;;5093059;28;20034;-78
2024/01/01 08:23:29;;;;;;;17.08;7.30;;;15.20;95.50;;;;;;5091894;28;20043;-79
2024/01/01 08:25:55;;;;;;;14.07;6.13;;;15.30;95.40;;;;;;5093148;28;20048;-79
2024/01/01 08:28:20;;;;;;;19.75;6.28;;;15.30;95.20;;;;;;5094673;28;20032;-77
2024/01/01 08:30:48;;;;;;;17.23;5.88;;;15.40;95.20;;;;;;5092860;28;20037;-77
2024/01/01 08:33:14;;;;;;;17.58;6.38;;;15.40;95.10;;;;;;5093249;28;20126;-79
2024/01/01 08:35:40;;;;;;;13.65;5.38;;;15.50;95.00;;;;;;5092200;28;20082;-78
2024/01/01 08:38:06;;;;;;;13.00;5.15;;;15.50;94.90;;;;;;5093987;28;20036;-78
2024/01/01 08:40:31;;;;;;;16.88;5.50;;;15.60;94.70;;;;;;5094062;28;20103;-77
2024/01/01 08:42:57;;;;;;;16.50;5.85;;;15.70;94.70;;;;;;5093515;28;20032;-78
2024/01/01 08:45:23;;;;;;;18.92;5.32;;;15.80;94.50;;;;;;5092749;28;20178;-78
2024/01/01 08:47:48;;;;;;;18.63;7.18;;;15.90;94.30;;;;;;5092445;28;20040;-81
2024/01/01 08:50:14;;;;;;;18.10;6.97;;;15.90;94.10;;;;;;5092862;28;20036;-77
2024/01/01 08:52:42;;;;;;;14.63;5.43;;;15.90;94.00;;;;;;5093060;28;20046;-79
2024/01/01 08:55:08;;;;;;;15.32;5.03;;;16.00;94.00;;;;;;5093133;28;20020;-78
2024/01/01 08:57:34;;;;;;;13.30;4.82;;;16.00;93.90;;;;;;5091450;28;20488;-78
2024/01/01 09:00:00;;;;;;;19.80;5.82;;;16.10;93.70;;;;;;5092587;28;20050;-77
2024/01/01 09:02:25;;;;;;;17.08;5.55;;;16.10;93.60;;;;;;5092907;28;20077;-79
2024/01/01 09:04:51;;;;;;;14.82;4.22;;;16.20;93.50;;;;;;5093021;28;20039;-79
2024/01/01 09:07:17;;;;;;;17.02;4.30;;;16.30;93.40;;;;;;5093929;28;20514;-79
2024/01/01 09:09:43;;;;;;;20.50;4.13;;;16.30;93.20;;;;;;5093487;28;20058;-79
2024/01/01 09:12:09;;;;;;;14.75;3.88;;;16.40;93.10;;;;;;5093041;28;20567;-78
2024/01/01 09:14:35;;;;;;;16.50;4.03;;;16.50;93.00;;;;;;5092672;28;20068;-79
2024/01/01 09:17:02;;;;;;;17.88;4.55;;;16.60;92.90;;;;;;5092956;28;20389;-78
2024/01/01 09:19:28;;;;;;;11.50;3.00;;;16.60;92.70;;;;;;5092151;28;20028;-79
2024/01/01 09:21:53;;;;;;;15.82;3.45;;;16.60;92.50;;;;;;5092835;28;20157;-78
2024/01/01 09:24:19;;;;;;;16.90;3.72;;;16.70;92.30;;;;;;5092419;28;20089;-78
2024/01/01 09:26:46;;;;;;;14.00;3.58;;;16.80;92.20;;;;;;5092321;28;20119;-78
2024/01/01 09:29:11;;;;;;;15.88;3.92;;;16.90;92.20;;;;;;5092769;28;20533;-79
2024/01/01 09:31:37;;;;;;;17.13;3.90;;;17.00;91.90;;;;;;5092282;28;20032;-78
2024/01/01 09:34:06;;;;;;;12.15;3.17;;;17.00;91.80;;;;;;5091843;28;20042;-80
2024/01/01 09:36:32;;;;;;;16.60;3.58;;;17.10;91.60;;;;;;5095628;28;20036;-80
2024/01/01 09:38:58;;;;;;;19.25;4.15;;;17.10;91.50;;;;;;5095530;28;20112;-79
2024/01/01 09:41:27;;;;;;;17.25;3.53;;;17.10;91.20;;;;;;5095390;28;20028;-77
2024/01/01 09:43:53;;;;;;;18.13;3.53;;;17.10;91.20;;;;;;5093720;28;20066;-78
2024/01/01 09:46:20;;;;;;;16.80;3.97;;;17.10;91.40;;;;;;5095422;28;20066;-78
2024/01/01 09:48:46;;;;;;;18.25;3.33;;;17.00;90.90;;;;;;5095412;28;20036;-79
2024/01/01 09:51:12;;;;;;;10.98;3.03;;;17.10;90.80;;;;;;5095586;28;20028;-79
2024/01/01 09:53:37;;;;;;;17.75;3.95;;;17.10;90.60;;;;;;5095280;28;20115;-78
2024/01/01 09:56:03;;;;;;;17.65;4.05;;;17.10;90.20;;;;;;5094850;28;20028;-79
2024/01/01 09:58:42;;;;;;;22.17;3.92;;;17.10;90.00;;;;;;5095075;28;20067;-79
2024/01/01 10:01:13;;;;;;;18.55;3.65;;;17.20;89.60;;;;;;5095220;28;20458;-78
2024/01/01 10:03:40;;;;;;;16.45;3.80;;;17.30;89.60;;;;;;5095366;28;20107;-78
2024/01/01 10:06:10;;;;;;;23.35;4.55;;;17.40;88.90;;;;;;5095167;28;20093;-79
2024/01/01 10:08:36;;;;;;;22.42;4.65;;;17.50;88.40;;;;;;5093569;28;20123;-78
2024/01/01 10:11:20;;;;;;;19.52;3.17;;;17.60;88.10;;;;;;5097561;28;20085;-79
2024/01/01 10:13:49;;;;;;;;;;;17.40;87.90;;;;;;5098389;28;20075;-78
2024/01/01 10:16:27;;;;;;;18.15;3.72;;;17.40;86.90;;;;;;5094764;28;19908;-80
2024/01/01 10:18:57;;;;;;;17.80;3.75;;;17.40;87.50;;;;;;5096184;28;20028;-78
2024/01/01 10:21:30;;;;;;;35.05;16.80;;;17.30;87.00;;;;;;5096895;28;20058;-80
2024/01/01 10:23:57;;;;;;;15.15;3.65;;;17.30;87.40;;;;;;5095211;28;20032;-79
2024/01/01 10:26:23;;;;;;;18.23;4.18;;;17.30;86.90;;;;;;5094463;28;20062;-79
2024/01/01 10:28:49;;;;;;;17.35;3.50;;;17.30;86.50;;;;;;5094553;28;20035;-79
2024/01/01 10:31:15;;;;;;;17.10;4.22;;;17.40;86.40;;;;;;5094497;28;20040;-77
2024/01/01 10:33:42;;;;;;;17.02;3.53;;;17.40;86.20;;;;;;5094202;28;20051;-80
2024/01/01 10:36:08;;;;;;;18.23;3.00;;;17.40;85.60;;;;;;5094291;28;20074;-78
2024/01/01 10:38:35;;;;;;;15.70;3.75;;;17.40;85.90;;;;;;5094659;28;20036;-79
2024/01/01 10:41:02;;;;;;;20.27;4.10;;;17.40;85.40;;;;;;5096045;28;20032;-80
2024/01/01 10:43:28;;;;;;;15.10;3.50;;;17.50;84.50;;;;;;5094536;28;20445;-78
2024/01/01 10:46:04;;;;;;;20.45;4.60;;;17.60;84.20;;;;;;5093698;28;20551;-77
2024/01/01 10:48:35;;;;;;;24.60;6.95;;;17.50;84.10;;;;;;5093922;28;20113;-79
2024/01/01 10:51:25;;;;;;;27.80;4.75;;;17.60;83.80;;;;;;5094023;28;20054;-79
2024/01/01 10:54:23;;;;;;;20.48;4.75;;;17.60;84.00;;;;;;5094585;28;20557;-80
2024/01/01 10:57:25;;;;;;;16.17;3.75;;;17.60;84.40;;;;;;5094593;28;20036;-80
2024/01/01 11:00:05;;;;;;;24.00;3.83;;;17.60;84.30;;;;;;5094065;28;20169;-80
2024/01/01 11:02:31;;;;;;;15.88;3.25;;;17.50;83.60;;;;;;5094194;28;20030;-80
2024/01/01 11:05:10;;;;;;;17.30;3.78;;;17.40;83.60;;;;;;5094801;28;20125;-79
2024/01/01 11:07:54;;;;;;;15.10;3.72;;;17.40;83.60;;;;;;5092982;28;20043;-79
2024/01/01 11:10:36;;;;;;;;;;;17.40;83.60;;;;;;5094206;28;20036;-79
2024/01/01 11:13:08;;;;;;;18.73;4.18;;;17.50;83.20;;;;;;5092430;28;19912;-80
2024/01/01 11:15:45;;;;;;;14.27;3.28;;;17.60;83.60;;;;;;5094024;28;20157;-78
2024/01/01 11:18:15;;;;;;;18.20;3.78;;;17.60;83.20;;;;;;5093587;28;20118;-79
2024/01/01 11:20:48;;;;;;;20.30;3.97;;;17.50;82.90;;;;;;5093743;28;20083;-79
2024/01/01 11:23:43;;;;;;;24.67;4.40;;;17.50;82.70;;;;;;5094081;28;20035;-78
2024/01/01 11:26:23;;;;;;;;;;;17.50;83.00;;;;;;5094120;28;20364;-78
2024/01/01 11:28:57;;;;;;;21.58;5.05;;;17.50;81.80;;;;;;5093351;28;19911;-80
2024/01/01 11:31:26;;;;;;;21.85;4.57;;;17.50;82.70;;;;;;5093405;28;20107;-78
2024/01/01 11:34:05;;;;;;;21.83;4.05;;;17.50;82.70;;;;;;5093698;28;20373;-79
2024/01/01 11:36:32;;;;;;;15.25;3.35;;;17.50;83.00;;;;;;5092111;28;20373;-78
2024/01/01 11:38:58;;;;;;;14.30;3.58;;;17.50;82.80;;;;;;5093538;28;20040;-80
2024/01/01 11:41:24;;;;;;;18.92;3.55;;;17.40;82.70;;;;;;5093334;28;20032;-80
2024/01/01 11:43:50;;;;;;;22.70;5.05;;;17.40;82.70;;;;;;5093299;28;20518;-79
2024/01/01 11:46:43;;;;;;;16.42;3.22;;;17.40;82.60;;;;;;5093756;28;20090;-78
2024/01/01 11:49:09;;;;;;;18.83;3.53;;;17.40;82.30;;;;;;5091992;28;20537;-80
2024/01/01 11:51:49;;;;;;;20.50;4.10;;;17.40;82.30;;;;;;5093441;28;20036;-80
2024/01/01 11:54:15;;;;;;;17.00;3.45;;;17.30;82.30;;;;;;5093400;28;20541;-79
2024/01/01 11:56:41;;;;;;;19.38;4.30;;;17.30;82.20;;;;;;5093136;28;20025;-79
2024/01/01 11:59:07;;;;;;;17.20;3.78;;;17.40;82.30;;;;;;5093442;28;20091;-80
2024/01/01 12:01:36;;;;;;;19.13;3.40;;;17.40;82.10;;;;;;5093455;28;20039;-80
2024/01/01 12:04:05;;;;;;;18.80;3.45;;;17.40;81.70;;;;;;5093419;28;20055;-78
2024/01/01 12:06:32;;;;;;;17.50;3.58;;;17.40;81.80;;;;;;5093620;28;20387;-80
2024/01/01 12:09:06;;;;;;;16.73;3.33;;;17.40;81.50;;;;;;5091789;28;20063;-79
2024/01/01 12:11:31;;;;;;;;;;;17.40;81.70;;;;;;5093613;28;20052;-82
2024/01/01 12:13:58;;;;;;;15.48;3.38;;;17.40;81.40;;;;;;5093546;28;20385;-80
2024/01/01 12:16:24;;;;;;;21.27;4.00;;;17.30;81.80;;;;;;5093061;28;20040;-80
2024/01/01 12:19:04;;;;;;;18.85;3.53;;;17.30;81.90;;;;;;5093389;28;20039;-80
2024/01/01 12:21:40;;;;;;;17.58;3.55;;;17.30;81.90;;;;;;5093320;28;20138;-79
2024/01/01 12:24:13;;;;;;;20.83;4.32;;;17.20;81.60;;;;;;5092666;28;20032;-79
2024/01/01 12:26:39;;;;;;;23.02;3.92;;;17.10;81.90;;;;;;5092859;28;20118;-78
2024/01/01 12:29:19;;;;;;;16.92;3.45;;;17.00;81.80;;;;;;5093260;28;20525;-81
2024/01/01 12:31:49;;;;;;;21.77;3.80;;;17.00;82.50;;;;;;5095042;28;20032;-80
2024/01/01 12:34:19;;;;;;;18.67;3.47;;;17.00;82.50;;;;;;5095098;28;20056;-78